sensor_id;sensor_type;location;lat;lon;timestamp;temperature;humidity
49549;DHT22;35450;44.518;7.466;2022-10-15T06:59:16;15.90;99.90
49549;DHT22;35450;44.518;7.466;2022-10-15T07:02:20;15.80;99.90
49549;DHT22;35450;44.518;7.466;2022-10-15T07:05:24;15.70;99.90
49549;DHT22;35450;44.518;7.466;2022-10-15T07:08:28;15.70;99.90
49549;DHT22;35450;44.518;7.466;2022-10-15T07:11:32;15.70;99.90
49549;DHT22;35450;44.518;7.466;2022-10-15T07:14:36;15.80;99.90
49549;DHT22;35450;44.518;7.466;2022-10-15T07:20:51;15.70;99.90
49549;DHT22;35450;44.518;7.466;2022-10-15T07:23:55;15.70;99.90
49549;DHT22;35450;44.518;7.466;2022-10-15T07:27:00;15.80;99.90
49549;DHT22;35450;44.518;7.466;2022-10-15T07:30:05;15.80;99.90
49549;DHT22;35450;44.518;7.466;2022-10-15T07:33:10;15.70;99.90
49549;DHT22;35450;44.518;7.466;2022-10-15T07:36:14;15.70;99.90
49549;DHT22;35450;44.518;7.466;2022-10-15T07:39:19;15.80;99.90
49549;DHT22;35450;44.518;7.466;2022-10-15T07:42:23;15.90;99.90
49549;DHT22;35450;44.518;7.466;2022-10-15T07:45:27;16.00;99.90
49549;DHT22;35450;44.518;7.466;2022-10-15T07:48:31;16.10;99.90
49549;DHT22;35450;44.518;7.466;2022-10-15T07:51:35;16.20;99.90
49549;DHT22;35450;44.518;7.466;2022-10-15T07:54:39;16.20;99.90
49549;DHT22;35450;44.518;7.466;2022-10-15T07:57:43;16.20;99.90
49549;DHT22;35450;44.518;7.466;2022-10-15T08:00:47;16.20;99.90
49549;DHT22;35450;44.518;7.466;2022-10-15T08:03:51;16.20;99.90
49549;DHT22;35450;44.518;7.466;2022-10-15T08:06:55;16.20;99.90
49549;DHT22;35450;44.518;7.466;2022-10-15T08:09:59;16.20;99.90
49549;DHT22;35450;44.518;7.466;2022-10-15T08:13:04;16.20;99.90
49549;DHT22;35450;44.518;7.466;2022-10-15T08:16:09;16.30;99.90
49549;DHT22;35450;44.518;7.466;2022-10-15T08:19:13;16.30;99.90
49549;DHT22;35450;44.518;7.466;2022-10-15T08:22:20;16.40;99.90
49549;DHT22;35450;44.518;7.466;2022-10-15T08:25:24;16.40;99.90
49549;DHT22;35450;44.518;7.466;2022-10-15T08:28:30;16.50;99.90
49549;DHT22;35450;44.518;7.466;2022-10-15T08:31:34;16.50;99.90
49549;DHT22;35450;44.518;7.466;2022-10-15T08:34:39;16.50;99.90
49549;DHT22;35450;44.518;7.466;2022-10-15T08:37:43;16.60;99.90
49549;DHT22;35450;44.518;7.466;2022-10-15T08:40:48;16.70;99.90
49549;DHT22;35450;44.518;7.466;2022-10-15T08:43:52;16.70;99.60
49549;DHT22;35450;44.518;7.466;2022-10-15T08:53:59;16.80;98.70
49549;DHT22;35450;44.518;7.466;2022-10-15T08:57:15;16.90;98.70
49549;DHT22;35450;44.518;7.466;2022-10-15T09:07:34;17.00;99.20
49549;DHT22;35450;44.518;7.466;2022-10-15T09:11:14;17.00;99.30
49549;DHT22;35450;44.518;7.466;2022-10-15T09:14:14;17.00;99.50
49549;DHT22;35450;44.518;7.466;2022-10-15T09:17:22;17.10;99.40
49549;DHT22;35450;44.518;7.466;2022-10-15T09:20:37;17.20;99.20
49549;DHT22;35450;44.518;7.466;2022-10-15T09:23:42;17.30;99.10
49549;DHT22;35450;44.518;7.466;2022-10-15T09:27:02;17.30;98.60
49549;DHT22;35450;44.518;7.466;2022-10-15T09:37:17;17.60;97.70
49549;DHT22;35450;44.518;7.466;2022-10-15T09:40:34;17.70;97.20
49549;DHT22;35450;44.518;7.466;2022-10-15T09:43:44;17.70;97.00
49549;DHT22;35450;44.518;7.466;2022-10-15T09:46:50;17.70;96.20
49549;DHT22;35450;44.518;7.466;2022-10-15T09:49:54;17.70;95.50
49549;DHT22;35450;44.518;7.466;2022-10-15T09:56:18;17.70;96.00
49549;DHT22;35450;44.518;7.466;2022-10-15T09:59:23;17.70;96.10
49549;DHT22;35450;44.518;7.466;2022-10-15T10:02:29;17.70;96.10
49549;DHT22;35450;44.518;7.466;2022-10-15T10:05:35;17.70;96.50
49549;DHT22;35450;44.518;7.466;2022-10-15T10:08:45;17.70;95.90
49549;DHT22;35450;44.518;7.466;2022-10-15T10:11:56;17.70;94.70
49549;DHT22;35450;44.518;7.466;2022-10-15T10:15:03;17.70;94.70
49549;DHT22;35450;44.518;7.466;2022-10-15T10:18:20;17.70;95.10
49549;DHT22;35450;44.518;7.466;2022-10-15T10:21:34;17.70;95.10
49549;DHT22;35450;44.518;7.466;2022-10-15T10:24:37;17.70;95.20
49549;DHT22;35450;44.518;7.466;2022-10-15T10:27:44;17.70;95.30
49549;DHT22;35450;44.518;7.466;2022-10-15T10:34:00;17.80;95.30
49549;DHT22;35450;44.518;7.466;2022-10-15T10:37:04;17.80;95.00
49549;DHT22;35450;44.518;7.466;2022-10-15T10:40:33;17.80;95.00
49549;DHT22;35450;44.518;7.466;2022-10-15T10:43:53;17.80;94.90
49549;DHT22;35450;44.518;7.466;2022-10-15T10:50:33;17.90;94.90
49549;DHT22;35450;44.518;7.466;2022-10-15T10:53:48;17.90;95.00
49549;DHT22;35450;44.518;7.466;2022-10-15T10:56:52;17.80;95.20
49549;DHT22;35450;44.518;7.466;2022-10-15T10:59:57;17.90;95.30
49549;DHT22;35450;44.518;7.466;2022-10-15T11:03:02;18.00;95.50
49549;DHT22;35450;44.518;7.466;2022-10-15T11:10:09;18.10;95.50
49549;DHT22;35450;44.518;7.466;2022-10-15T11:17:22;18.30;94.70
49549;DHT22;35450;44.518;7.466;2022-10-15T11:27:03;18.50;95.80
49549;DHT22;35450;44.518;7.466;2022-10-15T11:30:48;18.50;95.90
49549;DHT22;35450;44.518;7.466;2022-10-15T11:40:48;18.40;95.90
49549;DHT22;35450;44.518;7.466;2022-10-15T11:57:21;18.40;95.90
49549;DHT22;35450;44.518;7.466;2022-10-15T12:00:34;18.40;95.70
49549;DHT22;35450;44.518;7.466;2022-10-15T12:03:57;18.50;95.80
49549;DHT22;35450;44.518;7.466;2022-10-15T12:07:05;18.60;95.70
49549;DHT22;35450;44.518;7.466;2022-10-15T12:10:19;18.70;95.80
49549;DHT22;35450;44.518;7.466;2022-10-15T12:13:37;18.70;95.90
49549;DHT22;35450;44.518;7.466;2022-10-15T12:20:16;18.80;95.30
49549;DHT22;35450;44.518;7.466;2022-10-15T12:26:35;18.80;95.00
49549;DHT22;35450;44.518;7.466;2022-10-15T12:29:39;18.90;95.00
49549;DHT22;35450;44.518;7.466;2022-10-15T12:32:45;18.90;94.80
49549;DHT22;35450;44.518;7.466;2022-10-15T12:36:16;18.80;94.90
49549;DHT22;35450;44.518;7.466;2022-10-15T12:39:22;18.80;95.30
49549;DHT22;35450;44.518;7.466;2022-10-15T12:42:32;18.80;95.30
49549;DHT22;35450;44.518;7.466;2022-10-15T12:45:40;18.80;95.10
49549;DHT22;35450;44.518;7.466;2022-10-15T12:48:45;18.80;95.00
49549;DHT22;35450;44.518;7.466;2022-10-15T12:51:49;18.80;94.90
49549;DHT22;35450;44.518;7.466;2022-10-15T12:55:30;18.80;94.90
49549;DHT22;35450;44.518;7.466;2022-10-15T12:58:39;18.90;94.80
49549;DHT22;35450;44.518;7.466;2022-10-15T13:04:47;18.90;95.30
49549;DHT22;35450;44.518;7.466;2022-10-15T13:07:52;18.90;95.60
49549;DHT22;35450;44.518;7.466;2022-10-15T13:10:58;19.00;95.40
49549;DHT22;35450;44.518;7.466;2022-10-15T13:17:24;19.00;94.90
49549;DHT22;35450;44.518;7.466;2022-10-15T13:20:35;19.00;94.80
49549;DHT22;35450;44.518;7.466;2022-10-15T13:23:45;19.00;94.90
49549;DHT22;35450;44.518;7.466;2022-10-15T13:26:50;19.00;94.90
49549;DHT22;35450;44.518;7.466;2022-10-15T13:30:04;19.10;95.00
49549;DHT22;35450;44.518;7.466;2022-10-15T13:33:08;19.10;94.90
49549;DHT22;35450;44.518;7.466;2022-10-15T13:36:26;19.10;94.80
49549;DHT22;35450;44.518;7.466;2022-10-15T13:39:35;19.20;95.00
49549;DHT22;35450;44.518;7.466;2022-10-15T13:43:00;19.20;95.00
49549;DHT22;35450;44.518;7.466;2022-10-15T13:46:04;19.20;95.00
49549;DHT22;35450;44.518;7.466;2022-10-15T13:49:10;19.20;95.20
49549;DHT22;35450;44.518;7.466;2022-10-15T13:52:15;19.30;94.20
49549;DHT22;35450;44.518;7.466;2022-10-15T13:55:22;19.20;94.20
49549;DHT22;35450;44.518;7.466;2022-10-15T13:58:32;19.10;94.60
49549;DHT22;35450;44.518;7.466;2022-10-15T14:01:48;19.10;94.40
49549;DHT22;35450;44.518;7.466;2022-10-15T14:04:54;19.10;94.40
49549;DHT22;35450;44.518;7.466;2022-10-15T14:08:27;19.10;95.00
49549;DHT22;35450;44.518;7.466;2022-10-15T14:11:33;19.20;94.50
49549;DHT22;35450;44.518;7.466;2022-10-15T14:14:38;19.30;94.30
49549;DHT22;35450;44.518;7.466;2022-10-15T14:17:49;19.30;93.90
49549;DHT22;35450;44.518;7.466;2022-10-15T14:20:54;19.30;94.30
49549;DHT22;35450;44.518;7.466;2022-10-15T14:24:31;19.30;94.10
49549;DHT22;35450;44.518;7.466;2022-10-15T14:27:36;19.40;94.40
49549;DHT22;35450;44.518;7.466;2022-10-15T14:30:40;19.50;94.20
49549;DHT22;35450;44.518;7.466;2022-10-15T14:33:47;19.60;93.90
49549;DHT22;35450;44.518;7.466;2022-10-15T14:36:50;19.60;93.80
49549;DHT22;35450;44.518;7.466;2022-10-15T14:43:16;19.50;94.30
49549;DHT22;35450;44.518;7.466;2022-10-15T14:46:20;19.70;94.20
49549;DHT22;35450;44.518;7.466;2022-10-15T14:49:30;19.60;94.10
49549;DHT22;35450;44.518;7.466;2022-10-15T14:52:36;19.60;94.50
49549;DHT22;35450;44.518;7.466;2022-10-15T14:55:49;19.60;94.20
49549;DHT22;35450;44.518;7.466;2022-10-15T14:58:56;19.60;94.20
49549;DHT22;35450;44.518;7.466;2022-10-15T15:02:01;19.60;94.60
49549;DHT22;35450;44.518;7.466;2022-10-15T15:08:16;19.40;94.60
49549;DHT22;35450;44.518;7.466;2022-10-15T15:11:23;19.40;94.70
49549;DHT22;35450;44.518;7.466;2022-10-15T15:14:28;19.50;94.70
49549;DHT22;35450;44.518;7.466;2022-10-15T15:17:32;19.40;94.80
49549;DHT22;35450;44.518;7.466;2022-10-15T15:20:37;19.40;95.00
49549;DHT22;35450;44.518;7.466;2022-10-15T15:23:42;19.30;94.90
49549;DHT22;35450;44.518;7.466;2022-10-15T15:26:46;19.20;95.40
49549;DHT22;35450;44.518;7.466;2022-10-15T15:29:51;19.10;95.90
49549;DHT22;35450;44.518;7.466;2022-10-15T15:32:56;19.10;95.80
49549;DHT22;35450;44.518;7.466;2022-10-15T15:36:02;19.10;95.80
49549;DHT22;35450;44.518;7.466;2022-10-15T15:39:07;19.00;95.80
49549;DHT22;35450;44.518;7.466;2022-10-15T15:42:13;19.00;96.20
49549;DHT22;35450;44.518;7.466;2022-10-15T15:45:23;18.90;96.40
49549;DHT22;35450;44.518;7.466;2022-10-15T15:48:27;18.90;96.30
49549;DHT22;35450;44.518;7.466;2022-10-15T15:51:30;18.80;96.20
49549;DHT22;35450;44.518;7.466;2022-10-15T15:54:35;18.70;96.20
49549;DHT22;35450;44.518;7.466;2022-10-15T15:57:39;18.70;96.60
49549;DHT22;35450;44.518;7.466;2022-10-15T16:00:43;18.70;96.50
49549;DHT22;35450;44.518;7.466;2022-10-15T16:03:47;18.70;96.40
49549;DHT22;35450;44.518;7.466;2022-10-15T16:06:51;18.70;96.20
49549;DHT22;35450;44.518;7.466;2022-10-15T16:09:55;18.60;96.50
49549;DHT22;35450;44.518;7.466;2022-10-15T16:12:59;18.50;96.80
49549;DHT22;35450;44.518;7.466;2022-10-15T16:16:03;18.40;97.40
49549;DHT22;35450;44.518;7.466;2022-10-15T16:19:08;18.30;97.40
49549;DHT22;35450;44.518;7.466;2022-10-15T16:22:12;18.30;97.50
49549;DHT22;35450;44.518;7.466;2022-10-15T16:25:19;18.30;97.90
49549;DHT22;35450;44.518;7.466;2022-10-15T16:28:23;18.30;97.80
49549;DHT22;35450;44.518;7.466;2022-10-15T16:31:27;18.40;97.80
49549;DHT22;35450;44.518;7.466;2022-10-15T16:34:32;18.40;97.70
49549;DHT22;35450;44.518;7.466;2022-10-15T16:37:36;18.40;97.60
49549;DHT22;35450;44.518;7.466;2022-10-15T16:40:40;18.30;98.00
49549;DHT22;35450;44.518;7.466;2022-10-15T16:43:45;18.20;98.30
49549;DHT22;35450;44.518;7.466;2022-10-15T16:46:49;18.10;98.60
49549;DHT22;35450;44.518;7.466;2022-10-15T16:49:53;18.10;98.50
49549;DHT22;35450;44.518;7.466;2022-10-15T16:52:58;18.00;98.40
49549;DHT22;35450;44.518;7.466;2022-10-15T16:56:04;18.10;98.60
49549;DHT22;35450;44.518;7.466;2022-10-15T16:59:08;18.10;98.90
49549;DHT22;35450;44.518;7.466;2022-10-15T17:02:12;18.10;98.10
49549;DHT22;35450;44.518;7.466;2022-10-15T17:05:16;18.20;98.10
49549;DHT22;35450;44.518;7.466;2022-10-15T17:08:20;18.10;97.80
49549;DHT22;35450;44.518;7.466;2022-10-15T17:11:27;18.20;97.70
49549;DHT22;35450;44.518;7.466;2022-10-15T17:14:31;18.20;97.70
49549;DHT22;35450;44.518;7.466;2022-10-15T17:17:36;18.20;97.70
49549;DHT22;35450;44.518;7.466;2022-10-15T17:20:46;18.20;97.30
49549;DHT22;35450;44.518;7.466;2022-10-15T17:23:52;18.20;97.10
49549;DHT22;35450;44.518;7.466;2022-10-15T17:26:56;18.20;97.30
49549;DHT22;35450;44.518;7.466;2022-10-15T17:30:03;18.20;97.40
49549;DHT22;35450;44.518;7.466;2022-10-15T17:33:07;18.20;97.70
49549;DHT22;35450;44.518;7.466;2022-10-15T17:36:17;18.20;98.20
49549;DHT22;35450;44.518;7.466;2022-10-15T17:39:22;18.20;98.10
49549;DHT22;35450;44.518;7.466;2022-10-15T17:42:26;18.30;98.00
49549;DHT22;35450;44.518;7.466;2022-10-15T17:45:29;18.30;97.60
49549;DHT22;35450;44.518;7.466;2022-10-15T17:48:35;18.30;97.50
49549;DHT22;35450;44.518;7.466;2022-10-15T17:51:40;18.30;97.70
49549;DHT22;35450;44.518;7.466;2022-10-15T17:54:44;18.30;97.70
49549;DHT22;35450;44.518;7.466;2022-10-15T17:57:48;18.30;97.60
49549;DHT22;35450;44.518;7.466;2022-10-15T18:00:56;18.30;97.70
49549;DHT22;35450;44.518;7.466;2022-10-15T18:04:00;18.30;98.00
49549;DHT22;35450;44.518;7.466;2022-10-15T18:07:04;18.30;98.10
49549;DHT22;35450;44.518;7.466;2022-10-15T18:10:10;18.30;98.20
49549;DHT22;35450;44.518;7.466;2022-10-15T18:13:15;18.20;98.40
49549;DHT22;35450;44.518;7.466;2022-10-15T18:16:20;18.10;98.40
49549;DHT22;35450;44.518;7.466;2022-10-15T18:19:25;18.10;98.40
49549;DHT22;35450;44.518;7.466;2022-10-15T18:22:29;18.10;98.60
49549;DHT22;35450;44.518;7.466;2022-10-15T18:25:34;18.10;98.60
49549;DHT22;35450;44.518;7.466;2022-10-15T18:28:40;18.10;98.70
49549;DHT22;35450;44.518;7.466;2022-10-15T18:31:45;18.10;98.70
49549;DHT22;35450;44.518;7.466;2022-10-15T18:34:51;18.10;98.90
49549;DHT22;35450;44.518;7.466;2022-10-15T18:37:55;18.10;99.10
49549;DHT22;35450;44.518;7.466;2022-10-15T18:40:59;18.00;98.90
49549;DHT22;35450;44.518;7.466;2022-10-15T18:44:14;18.00;99.10
49549;DHT22;35450;44.518;7.466;2022-10-15T18:47:19;18.00;99.00
49549;DHT22;35450;44.518;7.466;2022-10-15T18:50:23;18.00;99.10
49549;DHT22;35450;44.518;7.466;2022-10-15T18:53:28;18.00;99.40
49549;DHT22;35450;44.518;7.466;2022-10-15T18:56:34;18.00;99.20
49549;DHT22;35450;44.518;7.466;2022-10-15T18:59:38;18.00;99.50
49549;DHT22;35450;44.518;7.466;2022-10-15T19:02:42;18.00;99.50
49549;DHT22;35450;44.518;7.466;2022-10-15T19:05:46;18.00;99.30
49549;DHT22;35450;44.518;7.466;2022-10-15T19:08:50;18.00;99.00
49549;DHT22;35450;44.518;7.466;2022-10-15T19:11:56;18.00;99.00
49549;DHT22;35450;44.518;7.466;2022-10-15T19:15:00;17.90;99.20
49549;DHT22;35450;44.518;7.466;2022-10-15T19:18:04;17.90;99.00
49549;DHT22;35450;44.518;7.466;2022-10-15T19:21:14;17.90;99.10
49549;DHT22;35450;44.518;7.466;2022-10-15T19:24:19;17.80;98.90
49549;DHT22;35450;44.518;7.466;2022-10-15T19:27:23;17.90;98.90
49549;DHT22;35450;44.518;7.466;2022-10-15T19:30:27;17.80;98.90
49549;DHT22;35450;44.518;7.466;2022-10-15T19:33:31;17.90;99.70
49549;DHT22;35450;44.518;7.466;2022-10-15T19:36:39;17.80;99.90
49549;DHT22;35450;44.518;7.466;2022-10-15T19:39:44;17.70;99.90
49549;DHT22;35450;44.518;7.466;2022-10-15T19:42:51;17.80;99.90
49549;DHT22;35450;44.518;7.466;2022-10-15T19:45:55;17.80;99.90
49549;DHT22;35450;44.518;7.466;2022-10-15T19:48:58;17.80;99.90
49549;DHT22;35450;44.518;7.466;2022-10-15T19:52:02;17.80;99.60
49549;DHT22;35450;44.518;7.466;2022-10-15T19:55:06;17.80;99.60
49549;DHT22;35450;44.518;7.466;2022-10-15T19:58:10;17.80;99.70
49549;DHT22;35450;44.518;7.466;2022-10-15T20:01:14;17.80;99.70
49549;DHT22;35450;44.518;7.466;2022-10-15T20:04:18;17.80;99.80
49549;DHT22;35450;44.518;7.466;2022-10-15T20:07:22;17.70;99.90
49549;DHT22;35450;44.518;7.466;2022-10-15T20:10:26;17.80;99.90
49549;DHT22;35450;44.518;7.466;2022-10-15T20:13:30;17.80;99.90
49549;DHT22;35450;44.518;7.466;2022-10-15T20:16:34;17.80;99.90
49549;DHT22;35450;44.518;7.466;2022-10-15T20:19:38;17.80;99.70
49549;DHT22;35450;44.518;7.466;2022-10-15T20:22:42;17.80;99.60
49549;DHT22;35450;44.518;7.466;2022-10-15T20:25:46;17.80;99.80
49549;DHT22;35450;44.518;7.466;2022-10-15T20:28:50;17.80;99.80
49549;DHT22;35450;44.518;7.466;2022-10-15T20:31:54;17.70;99.90
49549;DHT22;35450;44.518;7.466;2022-10-15T20:34:58;17.80;99.90
49549;DHT22;35450;44.518;7.466;2022-10-15T20:38:03;17.80;99.80
49549;DHT22;35450;44.518;7.466;2022-10-15T20:41:08;17.70;99.80
49549;DHT22;35450;44.518;7.466;2022-10-15T20:44:13;17.80;99.90
49549;DHT22;35450;44.518;7.466;2022-10-15T20:47:17;17.70;99.90
49549;DHT22;35450;44.518;7.466;2022-10-15T20:50:25;17.70;99.90
49549;DHT22;35450;44.518;7.466;2022-10-15T20:53:30;17.80;99.90
49549;DHT22;35450;44.518;7.466;2022-10-15T20:56:35;17.70;99.90
49549;DHT22;35450;44.518;7.466;2022-10-15T20:59:39;17.70;99.90
49549;DHT22;35450;44.518;7.466;2022-10-15T21:02:42;17.70;99.90
49549;DHT22;35450;44.518;7.466;2022-10-15T21:05:46;17.70;99.90
49549;DHT22;35450;44.518;7.466;2022-10-15T21:08:50;17.70;99.90
49549;DHT22;35450;44.518;7.466;2022-10-15T21:11:54;17.70;99.90
49549;DHT22;35450;44.518;7.466;2022-10-15T21:14:58;17.70;99.90
49549;DHT22;35450;44.518;7.466;2022-10-15T21:18:02;17.70;99.90
49549;DHT22;35450;44.518;7.466;2022-10-15T21:21:08;17.70;99.90
49549;DHT22;35450;44.518;7.466;2022-10-15T21:24:12;17.70;99.90
49549;DHT22;35450;44.518;7.466;2022-10-15T21:27:17;17.70;99.90
49549;DHT22;35450;44.518;7.466;2022-10-15T21:30:21;17.70;99.90
49549;DHT22;35450;44.518;7.466;2022-10-15T21:33:25;17.70;99.90
49549;DHT22;35450;44.518;7.466;2022-10-15T21:36:29;17.60;99.90
49549;DHT22;35450;44.518;7.466;2022-10-15T21:39:34;17.60;99.90
49549;DHT22;35450;44.518;7.466;2022-10-15T21:42:38;17.60;99.90
49549;DHT22;35450;44.518;7.466;2022-10-15T21:45:42;17.60;99.90
49549;DHT22;35450;44.518;7.466;2022-10-15T21:48:47;17.60;99.90
49549;DHT22;35450;44.518;7.466;2022-10-15T21:51:50;17.50;99.90
49549;DHT22;35450;44.518;7.466;2022-10-15T21:54:54;17.50;99.90
49549;DHT22;35450;44.518;7.466;2022-10-15T21:57:59;17.50;99.90
49549;DHT22;35450;44.518;7.466;2022-10-15T22:01:09;17.50;99.90
49549;DHT22;35450;44.518;7.466;2022-10-15T22:04:13;17.50;99.90
49549;DHT22;35450;44.518;7.466;2022-10-15T22:07:17;17.40;99.90
49549;DHT22;35450;44.518;7.466;2022-10-15T22:10:22;17.40;99.90
49549;DHT22;35450;44.518;7.466;2022-10-15T22:13:26;17.40;99.90
49549;DHT22;35450;44.518;7.466;2022-10-15T22:16:32;17.40;99.80
49549;DHT22;35450;44.518;7.466;2022-10-15T22:19:37;17.40;99.50
49549;DHT22;35450;44.518;7.466;2022-10-15T22:22:41;17.40;99.50
49549;DHT22;35450;44.518;7.466;2022-10-15T22:25:56;17.40;99.20
49549;DHT22;35450;44.518;7.466;2022-10-15T22:29:01;17.40;99.20
49549;DHT22;35450;44.518;7.466;2022-10-15T22:32:06;17.40;99.60
49549;DHT22;35450;44.518;7.466;2022-10-15T22:35:09;17.40;99.30
49549;DHT22;35450;44.518;7.466;2022-10-15T22:38:14;17.40;99.20
49549;DHT22;35450;44.518;7.466;2022-10-15T22:41:18;17.40;99.10
49549;DHT22;35450;44.518;7.466;2022-10-15T22:44:22;17.30;99.10
49549;DHT22;35450;44.518;7.466;2022-10-15T22:47:26;17.40;99.20
49549;DHT22;35450;44.518;7.466;2022-10-15T22:50:30;17.40;99.30
49549;DHT22;35450;44.518;7.466;2022-10-15T22:53:34;17.30;99.30
49549;DHT22;35450;44.518;7.466;2022-10-15T22:56:37;17.40;99.40
49549;DHT22;35450;44.518;7.466;2022-10-15T22:59:41;17.40;99.40
49549;DHT22;35450;44.518;7.466;2022-10-15T23:02:46;17.40;99.40
49549;DHT22;35450;44.518;7.466;2022-10-15T23:05:54;17.40;99.30
49549;DHT22;35450;44.518;7.466;2022-10-15T23:08:58;17.40;99.30
49549;DHT22;35450;44.518;7.466;2022-10-15T23:12:02;17.40;99.30
49549;DHT22;35450;44.518;7.466;2022-10-15T23:15:06;17.50;99.30
49549;DHT22;35450;44.518;7.466;2022-10-15T23:18:11;17.60;99.20
49549;DHT22;35450;44.518;7.466;2022-10-15T23:21:17;17.60;99.10
49549;DHT22;35450;44.518;7.466;2022-10-15T23:24:23;17.60;99.20
49549;DHT22;35450;44.518;7.466;2022-10-15T23:27:27;17.60;99.00
49549;DHT22;35450;44.518;7.466;2022-10-15T23:30:31;17.60;98.70
49549;DHT22;35450;44.518;7.466;2022-10-15T23:33:35;17.60;98.70
49549;DHT22;35450;44.518;7.466;2022-10-15T23:36:39;17.60;98.60
49549;DHT22;35450;44.518;7.466;2022-10-15T23:39:43;17.60;98.80
49549;DHT22;35450;44.518;7.466;2022-10-15T23:42:47;17.60;98.50
49549;DHT22;35450;44.518;7.466;2022-10-15T23:45:51;17.50;98.40
49549;DHT22;35450;44.518;7.466;2022-10-15T23:48:55;17.50;98.20
49549;DHT22;35450;44.518;7.466;2022-10-15T23:51:59;17.50;98.30
49549;DHT22;35450;44.518;7.466;2022-10-15T23:55:03;17.60;98.30
49549;DHT22;35450;44.518;7.466;2022-10-15T23:58:08;17.60;98.50
